sensor_id;sensor_type;location;lat;lon;timestamp;P1;durP1;ratioP1;P2;durP2;ratioP2
80910;SDS011;70359;51.420;7.032;2023-08-08T00:00:24;1.4;;;1.3;;
80910;SDS011;70359;51.420;7.032;2023-08-08T00:02:49;1.8;;;0.8;;
80910;SDS011;70359;51.420;7.032;2023-08-08T00:05:14;1.8;;;0.8;;
80910;SDS011;70359;51.420;7.032;2023-08-08T00:07:39;2.4;;;1.1;;
80910;SDS011;70359;51.420;7.032;2023-08-08T00:10:04;2.4;;;1.1;;
80910;SDS011;70359;51.420;7.032;2023-08-08T00:12:33;1.3;;;1.1;;
80910;SDS011;70359;51.420;7.032;2023-08-08T00:14:54;1.3;;;1.1;;
80910;SDS011;70359;51.420;7.032;2023-08-08T00:17:19;0.6;;;0.6;;
80910;SDS011;70359;51.420;7.032;2023-08-08T00:19:44;0.6;;;0.6;;
80910;SDS011;70359;51.420;7.032;2023-08-08T00:22:13;10.7;;;1;;
80910;SDS011;70359;51.420;7.032;2023-08-08T00:24:34;10.7;;;1;;
80910;SDS011;70359;51.420;7.032;2023-08-08T00:26:59;1;;;0.9;;
80910;SDS011;70359;51.420;7.032;2023-08-08T00:29:24;1;;;0.9;;
80910;SDS011;70359;51.420;7.032;2023-08-08T00:31:49;1.1;;;1;;
80910;SDS011;70359;51.420;7.032;2023-08-08T00:34:18;1.1;;;1;;
80910;SDS011;70359;51.420;7.032;2023-08-08T00:36:39;1.5;;;1;;
80910;SDS011;70359;51.420;7.032;2023-08-08T00:39:04;1.5;;;1;;
80910;SDS011;70359;51.420;7.032;2023-08-08T00:41:29;6.7;;;1;;
80910;SDS011;70359;51.420;7.032;2023-08-08T00:43:54;6.7;;;1;;
80910;SDS011;70359;51.420;7.032;2023-08-08T00:46:20;1.1;;;1;;
80910;SDS011;70359;51.420;7.032;2023-08-08T00:48:44;1.1;;;1;;
80910;SDS011;70359;51.420;7.032;2023-08-08T00:51:09;3.4;;;1.3;;
80910;SDS011;70359;51.420;7.032;2023-08-08T00:53:34;3.4;;;1.3;;
80910;SDS011;70359;51.420;7.032;2023-08-08T00:56:03;1.3;;;1;;
80910;SDS011;70359;51.420;7.032;2023-08-08T00:58:24;1.3;;;1;;
80910;SDS011;70359;51.420;7.032;2023-08-08T01:00:49;1.2;;;0.8;;
80910;SDS011;70359;51.420;7.032;2023-08-08T01:03:14;1.2;;;0.8;;
80910;SDS011;70359;51.420;7.032;2023-08-08T01:05:42;2.8;;;1;;
80910;SDS011;70359;51.420;7.032;2023-08-08T01:08:09;2.8;;;1;;
80910;SDS011;70359;51.420;7.032;2023-08-08T01:10:31;2.8;;;1;;
80910;SDS011;70359;51.420;7.032;2023-08-08T01:12:57;1.2;;;1;;
80910;SDS011;70359;51.420;7.032;2023-08-08T01:15:19;1.2;;;1;;
80910;SDS011;70359;51.420;7.032;2023-08-08T01:17:45;1.2;;;0.9;;
80910;SDS011;70359;51.420;7.032;2023-08-08T01:20:10;1.2;;;0.9;;
80910;SDS011;70359;51.420;7.032;2023-08-08T01:22:36;0.6;;;0.6;;
80910;SDS011;70359;51.420;7.032;2023-08-08T01:24:59;0.6;;;0.6;;
80910;SDS011;70359;51.420;7.032;2023-08-08T01:27:24;4.6;;;1.1;;
80910;SDS011;70359;51.420;7.032;2023-08-08T01:29:53;4.6;;;1.1;;
80910;SDS011;70359;51.420;7.032;2023-08-08T01:32:14;1.2;;;1;;
80910;SDS011;70359;51.420;7.032;2023-08-08T01:34:39;1.2;;;1;;
80910;SDS011;70359;51.420;7.032;2023-08-08T01:37:08;1.1;;;0.9;;
80910;SDS011;70359;51.420;7.032;2023-08-08T01:39:30;1.1;;;0.9;;
80910;SDS011;70359;51.420;7.032;2023-08-08T01:41:54;1.2;;;1.1;;
80910;SDS011;70359;51.420;7.032;2023-08-08T01:44:19;1.2;;;1.1;;
80910;SDS011;70359;51.420;7.032;2023-08-08T01:46:45;0.8;;;0.8;;
80910;SDS011;70359;51.420;7.032;2023-08-08T01:49:09;0.8;;;0.8;;
80910;SDS011;70359;51.420;7.032;2023-08-08T01:51:38;1.7;;;0.9;;
80910;SDS011;70359;51.420;7.032;2023-08-08T01:53:59;1.7;;;0.9;;
80910;SDS011;70359;51.420;7.032;2023-08-08T01:56:24;0.9;;;0.7;;
80910;SDS011;70359;51.420;7.032;2023-08-08T01:58:49;0.9;;;0.7;;
80910;SDS011;70359;51.420;7.032;2023-08-08T02:01:14;1;;;0.9;;
80910;SDS011;70359;51.420;7.032;2023-08-08T02:03:43;1;;;0.9;;
80910;SDS011;70359;51.420;7.032;2023-08-08T02:06:04;1;;;0.9;;
80910;SDS011;70359;51.420;7.032;2023-08-08T02:08:29;1;;;0.9;;
80910;SDS011;70359;51.420;7.032;2023-08-08T02:10:54;1;;;0.9;;
80910;SDS011;70359;51.420;7.032;2023-08-08T02:13:19;1;;;0.9;;
80910;SDS011;70359;51.420;7.032;2023-08-08T02:15:44;1.1;;;1;;
80910;SDS011;70359;51.420;7.032;2023-08-08T02:18:09;1.1;;;1;;
80910;SDS011;70359;51.420;7.032;2023-08-08T02:20:38;1.1;;;1;;
80910;SDS011;70359;51.420;7.032;2023-08-08T02:22:59;0.9;;;0.9;;
80910;SDS011;70359;51.420;7.032;2023-08-08T02:25:24;0.9;;;0.9;;
80910;SDS011;70359;51.420;7.032;2023-08-08T02:27:53;1.2;;;1.1;;
80910;SDS011;70359;51.420;7.032;2023-08-08T02:30:14;1.2;;;1.1;;
80910;SDS011;70359;51.420;7.032;2023-08-08T02:32:39;1.1;;;1;;
80910;SDS011;70359;51.420;7.032;2023-08-08T02:35:05;1.1;;;1;;
80910;SDS011;70359;51.420;7.032;2023-08-08T02:37:29;1.4;;;1.3;;
80910;SDS011;70359;51.420;7.032;2023-08-08T02:39:58;1.4;;;1.3;;
80910;SDS011;70359;51.420;7.032;2023-08-08T02:42:19;6.4;;;1.3;;
80910;SDS011;70359;51.420;7.032;2023-08-08T02:44:48;6.4;;;1.3;;
80910;SDS011;70359;51.420;7.032;2023-08-08T02:47:13;1.2;;;1.1;;
80910;SDS011;70359;51.420;7.032;2023-08-08T02:49:34;1.2;;;1.1;;
80910;SDS011;70359;51.420;7.032;2023-08-08T02:52:03;1.3;;;1.2;;
80910;SDS011;70359;51.420;7.032;2023-08-08T02:54:24;1.3;;;1.2;;
80910;SDS011;70359;51.420;7.032;2023-08-08T02:56:49;1.2;;;1;;
80910;SDS011;70359;51.420;7.032;2023-08-08T02:59:14;1.2;;;1;;
80910;SDS011;70359;51.420;7.032;2023-08-08T03:01:39;2.9;;;1.1;;
80910;SDS011;70359;51.420;7.032;2023-08-08T03:04:05;2.9;;;1.1;;
80910;SDS011;70359;51.420;7.032;2023-08-08T03:06:29;1;;;0.9;;
80910;SDS011;70359;51.420;7.032;2023-08-08T03:08:54;1;;;0.9;;
80910;SDS011;70359;51.420;7.032;2023-08-08T03:11:19;1.6;;;1.5;;
80910;SDS011;70359;51.420;7.032;2023-08-08T03:13:44;1.6;;;1.5;;
80910;SDS011;70359;51.420;7.032;2023-08-08T03:16:09;1.9;;;1.4;;
80910;SDS011;70359;51.420;7.032;2023-08-08T03:18:34;1.9;;;1.4;;
80910;SDS011;70359;51.420;7.032;2023-08-08T03:20:59;1.6;;;1.3;;
80910;SDS011;70359;51.420;7.032;2023-08-08T03:23:28;1.6;;;1.3;;
80910;SDS011;70359;51.420;7.032;2023-08-08T03:25:50;1.6;;;1.1;;
80910;SDS011;70359;51.420;7.032;2023-08-08T03:28:14;1.6;;;1.1;;
80910;SDS011;70359;51.420;7.032;2023-08-08T03:30:44;1.6;;;1.1;;
80910;SDS011;70359;51.420;7.032;2023-08-08T03:33:04;1.5;;;1.1;;
80910;SDS011;70359;51.420;7.032;2023-08-08T03:35:29;1.5;;;1.1;;
80910;SDS011;70359;51.420;7.032;2023-08-08T03:37:54;1;;;0.9;;
80910;SDS011;70359;51.420;7.032;2023-08-08T03:40:23;1;;;0.9;;
80910;SDS011;70359;51.420;7.032;2023-08-08T03:42:44;1.1;;;1;;
80910;SDS011;70359;51.420;7.032;2023-08-08T03:45:10;1.1;;;1;;
80910;SDS011;70359;51.420;7.032;2023-08-08T03:47:34;1.9;;;1.2;;
80910;SDS011;70359;51.420;7.032;2023-08-08T03:49:59;1.9;;;1.2;;
80910;SDS011;70359;51.420;7.032;2023-08-08T03:52:24;8.1;;;1.4;;
80910;SDS011;70359;51.420;7.032;2023-08-08T03:54:49;8.1;;;1.4;;
80910;SDS011;70359;51.420;7.032;2023-08-08T03:57:14;1.4;;;1.3;;
80910;SDS011;70359;51.420;7.032;2023-08-08T03:59:39;1.4;;;1.3;;
80910;SDS011;70359;51.420;7.032;2023-08-08T04:02:04;1.5;;;1.4;;
80910;SDS011;70359;51.420;7.032;2023-08-08T04:04:33;1.5;;;1.4;;
80910;SDS011;70359;51.420;7.032;2023-08-08T04:06:58;2.3;;;1.6;;
80910;SDS011;70359;51.420;7.032;2023-08-08T04:09:19;2.3;;;1.6;;
80910;SDS011;70359;51.420;7.032;2023-08-08T04:11:48;1.2;;;1.1;;
80910;SDS011;70359;51.420;7.032;2023-08-08T04:14:09;1.2;;;1.1;;
80910;SDS011;70359;51.420;7.032;2023-08-08T04:16:34;1.4;;;1.3;;
80910;SDS011;70359;51.420;7.032;2023-08-08T04:18:59;1.4;;;1.3;;
80910;SDS011;70359;51.420;7.032;2023-08-08T04:21:24;0.9;;;0.9;;
80910;SDS011;70359;51.420;7.032;2023-08-08T04:23:49;0.9;;;0.9;;
80910;SDS011;70359;51.420;7.032;2023-08-08T04:26:18;1.4;;;1.2;;
80910;SDS011;70359;51.420;7.032;2023-08-08T04:28:39;1.4;;;1.2;;
80910;SDS011;70359;51.420;7.032;2023-08-08T04:31:05;1.6;;;1.1;;
80910;SDS011;70359;51.420;7.032;2023-08-08T04:33:29;1.6;;;1.1;;
80910;SDS011;70359;51.420;7.032;2023-08-08T04:35:54;1.2;;;1.1;;
80910;SDS011;70359;51.420;7.032;2023-08-08T04:38:19;1.2;;;1.1;;
80910;SDS011;70359;51.420;7.032;2023-08-08T04:40:48;1.2;;;1.1;;
80910;SDS011;70359;51.420;7.032;2023-08-08T04:43:09;1.5;;;1.4;;
80910;SDS011;70359;51.420;7.032;2023-08-08T04:45:34;1.5;;;1.4;;
80910;SDS011;70359;51.420;7.032;2023-08-08T04:47:59;2.1;;;1.3;;
80910;SDS011;70359;51.420;7.032;2023-08-08T04:50:28;2.1;;;1.3;;
80910;SDS011;70359;51.420;7.032;2023-08-08T04:52:53;2;;;1.7;;
80910;SDS011;70359;51.420;7.032;2023-08-08T04:55:14;2;;;1.7;;
80910;SDS011;70359;51.420;7.032;2023-08-08T04:57:39;3;;;1.4;;
80910;SDS011;70359;51.420;7.032;2023-08-08T05:00:06;3;;;1.4;;
80910;SDS011;70359;51.420;7.032;2023-08-08T05:02:29;1.6;;;1.5;;
80910;SDS011;70359;51.420;7.032;2023-08-08T05:04:54;1.6;;;1.5;;
80910;SDS011;70359;51.420;7.032;2023-08-08T05:07:23;3.8;;;2;;
80910;SDS011;70359;51.420;7.032;2023-08-08T05:09:44;3.8;;;2;;
80910;SDS011;70359;51.420;7.032;2023-08-08T05:12:10;1.8;;;1.7;;
80910;SDS011;70359;51.420;7.032;2023-08-08T05:14:34;1.8;;;1.7;;
80910;SDS011;70359;51.420;7.032;2023-08-08T05:17:01;1.8;;;1.6;;
80910;SDS011;70359;51.420;7.032;2023-08-08T05:19:24;1.8;;;1.6;;
80910;SDS011;70359;51.420;7.032;2023-08-08T05:21:53;5.3;;;2.4;;
80910;SDS011;70359;51.420;7.032;2023-08-08T05:24:14;5.3;;;2.4;;
80910;SDS011;70359;51.420;7.032;2023-08-08T05:26:39;2.2;;;2;;
80910;SDS011;70359;51.420;7.032;2023-08-08T05:29:08;2.2;;;2;;
80910;SDS011;70359;51.420;7.032;2023-08-08T05:31:29;5.5;;;2.7;;
80910;SDS011;70359;51.420;7.032;2023-08-08T05:33:54;5.5;;;2.7;;
80910;SDS011;70359;51.420;7.032;2023-08-08T05:36:23;2.4;;;2.2;;
80910;SDS011;70359;51.420;7.032;2023-08-08T05:38:44;2.4;;;2.2;;
80910;SDS011;70359;51.420;7.032;2023-08-08T05:41:09;2.4;;;2.2;;
80910;SDS011;70359;51.420;7.032;2023-08-08T05:43:34;2.4;;;2.2;;
80910;SDS011;70359;51.420;7.032;2023-08-08T05:45:59;2.6;;;2.4;;
80910;SDS011;70359;51.420;7.032;2023-08-08T05:48:25;2.6;;;2.4;;
80910;SDS011;70359;51.420;7.032;2023-08-08T05:50:51;2.3;;;2.1;;
80910;SDS011;70359;51.420;7.032;2023-08-08T05:53:14;2.3;;;2.1;;
80910;SDS011;70359;51.420;7.032;2023-08-08T05:55:44;2.3;;;2.1;;
80910;SDS011;70359;51.420;7.032;2023-08-08T05:58:04;3.2;;;2.5;;
80910;SDS011;70359;51.420;7.032;2023-08-08T06:00:30;3.2;;;2.5;;
80910;SDS011;70359;51.420;7.032;2023-08-08T06:02:55;2.7;;;2.5;;
80910;SDS011;70359;51.420;7.032;2023-08-08T06:05:21;2.7;;;2.5;;
80910;SDS011;70359;51.420;7.032;2023-08-08T06:07:45;2.6;;;2.4;;
80910;SDS011;70359;51.420;7.032;2023-08-08T06:10:10;2.6;;;2.4;;
80910;SDS011;70359;51.420;7.032;2023-08-08T06:12:35;3.3;;;2.6;;
80910;SDS011;70359;51.420;7.032;2023-08-08T06:15:00;3.3;;;2.6;;
80910;SDS011;70359;51.420;7.032;2023-08-08T06:17:25;2.8;;;2.5;;
80910;SDS011;70359;51.420;7.032;2023-08-08T06:19:50;2.8;;;2.5;;
80910;SDS011;70359;51.420;7.032;2023-08-08T06:22:19;3.4;;;2.8;;
80910;SDS011;70359;51.420;7.032;2023-08-08T06:24:40;3.4;;;2.8;;
80910;SDS011;70359;51.420;7.032;2023-08-08T06:27:05;5.7;;;3.1;;
80910;SDS011;70359;51.420;7.032;2023-08-08T06:29:30;5.7;;;3.1;;
80910;SDS011;70359;51.420;7.032;2023-08-08T06:31:59;3;;;2.7;;
80910;SDS011;70359;51.420;7.032;2023-08-08T06:34:20;3;;;2.7;;
80910;SDS011;70359;51.420;7.032;2023-08-08T06:36:49;4.4;;;2.8;;
80910;SDS011;70359;51.420;7.032;2023-08-08T06:39:10;4.4;;;2.8;;
80910;SDS011;70359;51.420;7.032;2023-08-08T06:41:35;4.1;;;3.2;;
80910;SDS011;70359;51.420;7.032;2023-08-08T06:44:00;4.1;;;3.2;;
80910;SDS011;70359;51.420;7.032;2023-08-08T06:46:25;7.6;;;3.2;;
80910;SDS011;70359;51.420;7.032;2023-08-08T06:48:50;7.6;;;3.2;;
80910;SDS011;70359;51.420;7.032;2023-08-08T06:51:15;4.2;;;3.2;;
80910;SDS011;70359;51.420;7.032;2023-08-08T06:53:40;4.2;;;3.2;;
80910;SDS011;70359;51.420;7.032;2023-08-08T06:56:05;3.9;;;3.4;;
80910;SDS011;70359;51.420;7.032;2023-08-08T06:58:30;3.9;;;3.4;;
80910;SDS011;70359;51.420;7.032;2023-08-08T07:00:59;4.3;;;3.8;;
80910;SDS011;70359;51.420;7.032;2023-08-08T07:03:20;4.3;;;3.8;;
80910;SDS011;70359;51.420;7.032;2023-08-08T07:05:45;4.3;;;3.8;;
80910;SDS011;70359;51.420;7.032;2023-08-08T07:08:10;14.1;;;4;;
80910;SDS011;70359;51.420;7.032;2023-08-08T07:10:35;14.1;;;4;;
80910;SDS011;70359;51.420;7.032;2023-08-08T07:13:00;4.5;;;3.4;;
80910;SDS011;70359;51.420;7.032;2023-08-08T07:15:25;4.5;;;3.4;;
80910;SDS011;70359;51.420;7.032;2023-08-08T07:17:50;4.6;;;3.5;;
80910;SDS011;70359;51.420;7.032;2023-08-08T07:20:15;4.6;;;3.5;;
80910;SDS011;70359;51.420;7.032;2023-08-08T07:22:44;8.7;;;4.2;;
80910;SDS011;70359;51.420;7.032;2023-08-08T07:25:05;8.7;;;4.2;;
80910;SDS011;70359;51.420;7.032;2023-08-08T07:27:30;4.5;;;3.8;;
80910;SDS011;70359;51.420;7.032;2023-08-08T07:29:55;4.5;;;3.8;;
80910;SDS011;70359;51.420;7.032;2023-08-08T07:32:20;4.4;;;3.4;;
80910;SDS011;70359;51.420;7.032;2023-08-08T07:34:49;4.4;;;3.4;;
80910;SDS011;70359;51.420;7.032;2023-08-08T07:37:10;3.9;;;3.5;;
80910;SDS011;70359;51.420;7.032;2023-08-08T07:39:35;3.9;;;3.5;;
80910;SDS011;70359;51.420;7.032;2023-08-08T07:42:00;3;;;2.8;;
80910;SDS011;70359;51.420;7.032;2023-08-08T07:44:29;3;;;2.8;;
80910;SDS011;70359;51.420;7.032;2023-08-08T07:46:50;3.6;;;2.9;;
80910;SDS011;70359;51.420;7.032;2023-08-08T07:49:15;3.6;;;2.9;;
80910;SDS011;70359;51.420;7.032;2023-08-08T07:51:44;3.9;;;3.1;;
80910;SDS011;70359;51.420;7.032;2023-08-08T07:54:09;3.9;;;3.1;;
80910;SDS011;70359;51.420;7.032;2023-08-08T07:56:34;4.4;;;2.9;;
80910;SDS011;70359;51.420;7.032;2023-08-08T07:58:55;4.4;;;2.9;;
80910;SDS011;70359;51.420;7.032;2023-08-08T08:01:20;2.5;;;2.3;;
80910;SDS011;70359;51.420;7.032;2023-08-08T08:03:49;2.5;;;2.3;;
80910;SDS011;70359;51.420;7.032;2023-08-08T08:06:11;2.4;;;2.2;;
80910;SDS011;70359;51.420;7.032;2023-08-08T08:08:35;2.4;;;2.2;;
80910;SDS011;70359;51.420;7.032;2023-08-08T08:11:00;2.8;;;2.1;;
80910;SDS011;70359;51.420;7.032;2023-08-08T08:13:25;2.8;;;2.1;;
80910;SDS011;70359;51.420;7.032;2023-08-08T08:15:50;2.8;;;2.1;;
80910;SDS011;70359;51.420;7.032;2023-08-08T08:18:15;2.9;;;2;;
80910;SDS011;70359;51.420;7.032;2023-08-08T08:20:40;2.9;;;2;;
80910;SDS011;70359;51.420;7.032;2023-08-08T08:23:05;2.2;;;1.9;;
80910;SDS011;70359;51.420;7.032;2023-08-08T08:25:34;2.2;;;1.9;;
80910;SDS011;70359;51.420;7.032;2023-08-08T08:27:55;1.8;;;1.7;;
80910;SDS011;70359;51.420;7.032;2023-08-08T08:30:20;1.8;;;1.7;;
80910;SDS011;70359;51.420;7.032;2023-08-08T08:32:45;2.5;;;1.9;;
80910;SDS011;70359;51.420;7.032;2023-08-08T08:35:10;2.5;;;1.9;;
80910;SDS011;70359;51.420;7.032;2023-08-08T08:37:35;2.5;;;1.6;;
80910;SDS011;70359;51.420;7.032;2023-08-08T08:40:00;2.5;;;1.6;;
80910;SDS011;70359;51.420;7.032;2023-08-08T08:42:26;3.1;;;1.7;;
80910;SDS011;70359;51.420;7.032;2023-08-08T08:44:50;3.1;;;1.7;;
80910;SDS011;70359;51.420;7.032;2023-08-08T08:47:17;1.9;;;1.8;;
80910;SDS011;70359;51.420;7.032;2023-08-08T08:49:45;1.9;;;1.8;;
80910;SDS011;70359;51.420;7.032;2023-08-08T08:52:09;2;;;1.8;;
80910;SDS011;70359;51.420;7.032;2023-08-08T08:54:31;2;;;1.8;;
80910;SDS011;70359;51.420;7.032;2023-08-08T08:56:55;3.7;;;1.7;;
80910;SDS011;70359;51.420;7.032;2023-08-08T08:59:24;3.7;;;1.7;;
80910;SDS011;70359;51.420;7.032;2023-08-08T09:01:49;1.8;;;1.7;;
80910;SDS011;70359;51.420;7.032;2023-08-08T09:04:10;1.8;;;1.7;;
80910;SDS011;70359;51.420;7.032;2023-08-08T09:06:35;2.1;;;1.6;;
80910;SDS011;70359;51.420;7.032;2023-08-08T09:09:00;2.1;;;1.6;;
80910;SDS011;70359;51.420;7.032;2023-08-08T09:11:25;1.5;;;1.4;;
80910;SDS011;70359;51.420;7.032;2023-08-08T09:13:50;1.5;;;1.4;;
80910;SDS011;70359;51.420;7.032;2023-08-08T09:16:19;2.4;;;1.6;;
80910;SDS011;70359;51.420;7.032;2023-08-08T09:18:40;2.4;;;1.6;;
80910;SDS011;70359;51.420;7.032;2023-08-08T09:21:05;1.7;;;1.3;;
80910;SDS011;70359;51.420;7.032;2023-08-08T09:23:30;1.7;;;1.3;;
80910;SDS011;70359;51.420;7.032;2023-08-08T09:25:55;1.7;;;1.3;;
80910;SDS011;70359;51.420;7.032;2023-08-08T09:28:20;1.3;;;1.2;;
80910;SDS011;70359;51.420;7.032;2023-08-08T09:30:45;1.3;;;1.2;;
80910;SDS011;70359;51.420;7.032;2023-08-08T09:33:15;2.7;;;1.4;;
80910;SDS011;70359;51.420;7.032;2023-08-08T09:35:37;2.7;;;1.4;;
80910;SDS011;70359;51.420;7.032;2023-08-08T09:38:00;1.5;;;1.4;;
80910;SDS011;70359;51.420;7.032;2023-08-08T09:40:25;1.5;;;1.4;;
80910;SDS011;70359;51.420;7.032;2023-08-08T09:42:55;1.6;;;1.5;;
80910;SDS011;70359;51.420;7.032;2023-08-08T09:45:15;1.6;;;1.5;;
80910;SDS011;70359;51.420;7.032;2023-08-08T09:47:40;1.8;;;1.4;;
80910;SDS011;70359;51.420;7.032;2023-08-08T09:50:06;1.8;;;1.4;;
80910;SDS011;70359;51.420;7.032;2023-08-08T09:52:32;1.3;;;1.2;;
80910;SDS011;70359;51.420;7.032;2023-08-08T09:54:55;1.3;;;1.2;;
80910;SDS011;70359;51.420;7.032;2023-08-08T09:57:20;2.7;;;1.6;;
80910;SDS011;70359;51.420;7.032;2023-08-08T09:59:45;2.7;;;1.6;;
80910;SDS011;70359;51.420;7.032;2023-08-08T10:02:13;1.9;;;1.4;;
80910;SDS011;70359;51.420;7.032;2023-08-08T10:04:39;1.9;;;1.4;;
80910;SDS011;70359;51.420;7.032;2023-08-08T10:07:00;1.5;;;1.4;;
80910;SDS011;70359;51.420;7.032;2023-08-08T10:09:26;1.5;;;1.4;;
80910;SDS011;70359;51.420;7.032;2023-08-08T10:11:50;1.8;;;1.6;;
80910;SDS011;70359;51.420;7.032;2023-08-08T10:14:15;1.8;;;1.6;;
80910;SDS011;70359;51.420;7.032;2023-08-08T10:16:45;2.6;;;1.5;;
80910;SDS011;70359;51.420;7.032;2023-08-08T10:19:06;2.6;;;1.5;;
80910;SDS011;70359;51.420;7.032;2023-08-08T10:21:31;1.7;;;1.6;;
80910;SDS011;70359;51.420;7.032;2023-08-08T10:24:05;1.7;;;1.6;;
80910;SDS011;70359;51.420;7.032;2023-08-08T10:26:21;1.5;;;1.4;;
80910;SDS011;70359;51.420;7.032;2023-08-08T10:28:52;1.5;;;1.4;;
80910;SDS011;70359;51.420;7.032;2023-08-08T10:31:16;1.5;;;1.1;;
80910;SDS011;70359;51.420;7.032;2023-08-08T10:33:43;1.5;;;1.1;;
80910;SDS011;70359;51.420;7.032;2023-08-08T10:36:02;1.5;;;1.1;;
80910;SDS011;70359;51.420;7.032;2023-08-08T10:38:26;1.9;;;1.4;;
80910;SDS011;70359;51.420;7.032;2023-08-08T10:40:59;1.9;;;1.4;;
80910;SDS011;70359;51.420;7.032;2023-08-08T10:43:15;4.5;;;1.6;;
80910;SDS011;70359;51.420;7.032;2023-08-08T10:45:40;4.5;;;1.6;;
80910;SDS011;70359;51.420;7.032;2023-08-08T10:48:11;6.9;;;1.5;;
80910;SDS011;70359;51.420;7.032;2023-08-08T10:50:37;6.9;;;1.5;;
80910;SDS011;70359;51.420;7.032;2023-08-08T10:52:56;2.1;;;1.2;;
80910;SDS011;70359;51.420;7.032;2023-08-08T10:55:26;2.1;;;1.2;;
80910;SDS011;70359;51.420;7.032;2023-08-08T10:57:58;1.4;;;1.3;;
80910;SDS011;70359;51.420;7.032;2023-08-08T11:00:24;1.4;;;1.3;;
80910;SDS011;70359;51.420;7.032;2023-08-08T11:02:35;3.2;;;1.2;;
80910;SDS011;70359;51.420;7.032;2023-08-08T11:05:04;3.2;;;1.2;;
80910;SDS011;70359;51.420;7.032;2023-08-08T11:07:26;3.1;;;1.3;;
80910;SDS011;70359;51.420;7.032;2023-08-08T11:09:50;3.1;;;1.3;;
80910;SDS011;70359;51.420;7.032;2023-08-08T11:12:18;1.1;;;1;;
80910;SDS011;70359;51.420;7.032;2023-08-08T11:14:40;1.1;;;1;;
80910;SDS011;70359;51.420;7.032;2023-08-08T11:17:09;2;;;1.4;;
80910;SDS011;70359;51.420;7.032;2023-08-08T11:19:30;2;;;1.4;;
80910;SDS011;70359;51.420;7.032;2023-08-08T11:21:55;3;;;1.4;;
80910;SDS011;70359;51.420;7.032;2023-08-08T11:24:20;3;;;1.4;;
80910;SDS011;70359;51.420;7.032;2023-08-08T11:26:45;1.3;;;1.2;;
80910;SDS011;70359;51.420;7.032;2023-08-08T11:29:10;1.3;;;1.2;;
80910;SDS011;70359;51.420;7.032;2023-08-08T11:31:36;1.1;;;0.9;;
80910;SDS011;70359;51.420;7.032;2023-08-08T11:34:05;1.1;;;0.9;;
80910;SDS011;70359;51.420;7.032;2023-08-08T11:36:30;1.6;;;1.1;;
80910;SDS011;70359;51.420;7.032;2023-08-08T11:38:50;1.6;;;1.1;;
80910;SDS011;70359;51.420;7.032;2023-08-08T11:41:16;1.4;;;1.2;;
80910;SDS011;70359;51.420;7.032;2023-08-08T11:43:40;1.4;;;1.2;;
80910;SDS011;70359;51.420;7.032;2023-08-08T11:46:08;1.4;;;1.2;;
80910;SDS011;70359;51.420;7.032;2023-08-08T11:48:32;2.8;;;1.4;;
80910;SDS011;70359;51.420;7.032;2023-08-08T11:50:56;2.8;;;1.4;;
80910;SDS011;70359;51.420;7.032;2023-08-08T11:53:22;2.1;;;1.5;;
80910;SDS011;70359;51.420;7.032;2023-08-08T11:55:46;2.1;;;1.5;;
80910;SDS011;70359;51.420;7.032;2023-08-08T11:58:16;1.6;;;1.5;;
80910;SDS011;70359;51.420;7.032;2023-08-08T12:00:39;1.6;;;1.5;;
80910;SDS011;70359;51.420;7.032;2023-08-08T12:03:01;3.9;;;1.4;;
80910;SDS011;70359;51.420;7.032;2023-08-08T12:05:25;3.9;;;1.4;;
80910;SDS011;70359;51.420;7.032;2023-08-08T12:07:51;1.4;;;1.3;;
80910;SDS011;70359;51.420;7.032;2023-08-08T12:10:19;1.4;;;1.3;;
80910;SDS011;70359;51.420;7.032;2023-08-08T12:12:41;1.5;;;1.4;;
80910;SDS011;70359;51.420;7.032;2023-08-08T12:15:07;1.5;;;1.4;;
80910;SDS011;70359;51.420;7.032;2023-08-08T12:17:30;1.3;;;1.2;;
80910;SDS011;70359;51.420;7.032;2023-08-08T12:20:02;1.3;;;1.2;;
80910;SDS011;70359;51.420;7.032;2023-08-08T12:22:20;1.7;;;1.4;;
80910;SDS011;70359;51.420;7.032;2023-08-08T12:24:45;1.7;;;1.4;;
80910;SDS011;70359;51.420;7.032;2023-08-08T12:27:10;1.2;;;1.1;;
80910;SDS011;70359;51.420;7.032;2023-08-08T12:29:35;1.2;;;1.1;;
80910;SDS011;70359;51.420;7.032;2023-08-08T12:32:00;1.1;;;1;;
80910;SDS011;70359;51.420;7.032;2023-08-08T12:34:25;1.1;;;1;;
80910;SDS011;70359;51.420;7.032;2023-08-08T12:36:50;2.3;;;1.1;;
80910;SDS011;70359;51.420;7.032;2023-08-08T12:39:15;2.3;;;1.1;;
80910;SDS011;70359;51.420;7.032;2023-08-08T12:41:44;3.2;;;1.4;;
80910;SDS011;70359;51.420;7.032;2023-08-08T12:44:06;3.2;;;1.4;;
80910;SDS011;70359;51.420;7.032;2023-08-08T12:46:31;1.2;;;1.1;;
80910;SDS011;70359;51.420;7.032;2023-08-08T12:48:59;1.2;;;1.1;;
80910;SDS011;70359;51.420;7.032;2023-08-08T12:51:20;1.5;;;1.4;;
80910;SDS011;70359;51.420;7.032;2023-08-08T12:53:45;1.5;;;1.4;;
80910;SDS011;70359;51.420;7.032;2023-08-08T12:56:15;1.5;;;1.4;;
80910;SDS011;70359;51.420;7.032;2023-08-08T12:58:35;0.9;;;0.9;;
80910;SDS011;70359;51.420;7.032;2023-08-08T13:01:01;0.9;;;0.9;;
80910;SDS011;70359;51.420;7.032;2023-08-08T13:03:25;1.5;;;1.4;;
80910;SDS011;70359;51.420;7.032;2023-08-08T13:05:50;1.5;;;1.4;;
80910;SDS011;70359;51.420;7.032;2023-08-08T13:08:15;2.4;;;1.3;;
80910;SDS011;70359;51.420;7.032;2023-08-08T13:10:44;2.4;;;1.3;;
80910;SDS011;70359;51.420;7.032;2023-08-08T13:13:05;1.3;;;1.2;;
80910;SDS011;70359;51.420;7.032;2023-08-08T13:15:31;1.3;;;1.2;;
80910;SDS011;70359;51.420;7.032;2023-08-08T13:17:55;1.1;;;1;;
80910;SDS011;70359;51.420;7.032;2023-08-08T13:20:20;1.1;;;1;;
80910;SDS011;70359;51.420;7.032;2023-08-08T13:22:46;1.2;;;1.1;;
80910;SDS011;70359;51.420;7.032;2023-08-08T13:25:11;1.2;;;1.1;;
80910;SDS011;70359;51.420;7.032;2023-08-08T13:27:36;1.2;;;1.1;;
80910;SDS011;70359;51.420;7.032;2023-08-08T13:30:01;1.2;;;1.1;;
80910;SDS011;70359;51.420;7.032;2023-08-08T13:32:26;1.6;;;1.3;;
80910;SDS011;70359;51.420;7.032;2023-08-08T13:34:51;1.6;;;1.3;;
80910;SDS011;70359;51.420;7.032;2023-08-08T13:37:16;1.4;;;1.2;;
80910;SDS011;70359;51.420;7.032;2023-08-08T13:39:41;1.4;;;1.2;;
80910;SDS011;70359;51.420;7.032;2023-08-08T13:42:06;1.4;;;1.3;;
80910;SDS011;70359;51.420;7.032;2023-08-08T13:44:31;1.4;;;1.3;;
80910;SDS011;70359;51.420;7.032;2023-08-08T13:46:56;1.9;;;1.3;;
80910;SDS011;70359;51.420;7.032;2023-08-08T13:49:21;1.9;;;1.3;;
80910;SDS011;70359;51.420;7.032;2023-08-08T13:51:46;2.7;;;1.5;;
80910;SDS011;70359;51.420;7.032;2023-08-08T13:54:11;2.7;;;1.5;;
80910;SDS011;70359;51.420;7.032;2023-08-08T13:56:36;1.2;;;1.1;;
80910;SDS011;70359;51.420;7.032;2023-08-08T13:59:01;1.2;;;1.1;;
80910;SDS011;70359;51.420;7.032;2023-08-08T14:01:26;1.1;;;1;;
80910;SDS011;70359;51.420;7.032;2023-08-08T14:03:51;1.1;;;1;;
80910;SDS011;70359;51.420;7.032;2023-08-08T14:06:16;1.1;;;1;;
80910;SDS011;70359;51.420;7.032;2023-08-08T14:08:41;0.9;;;0.8;;
80910;SDS011;70359;51.420;7.032;2023-08-08T14:11:06;0.9;;;0.8;;
80910;SDS011;70359;51.420;7.032;2023-08-08T14:13:31;2.2;;;1;;
80910;SDS011;70359;51.420;7.032;2023-08-08T14:15:56;2.2;;;1;;
80910;SDS011;70359;51.420;7.032;2023-08-08T14:18:21;2.2;;;1.1;;
80910;SDS011;70359;51.420;7.032;2023-08-08T14:20:46;2.2;;;1.1;;
80910;SDS011;70359;51.420;7.032;2023-08-08T14:23:11;0.7;;;0.7;;
80910;SDS011;70359;51.420;7.032;2023-08-08T14:25:41;0.7;;;0.7;;
80910;SDS011;70359;51.420;7.032;2023-08-08T14:28:01;1.1;;;1;;
80910;SDS011;70359;51.420;7.032;2023-08-08T14:30:26;1.1;;;1;;
80910;SDS011;70359;51.420;7.032;2023-08-08T14:32:55;0.9;;;0.9;;
80910;SDS011;70359;51.420;7.032;2023-08-08T14:35:16;0.9;;;0.9;;
80910;SDS011;70359;51.420;7.032;2023-08-08T14:37:41;1.9;;;1.2;;
80910;SDS011;70359;51.420;7.032;2023-08-08T14:40:07;1.9;;;1.2;;
80910;SDS011;70359;51.420;7.032;2023-08-08T14:42:31;1;;;0.8;;
80910;SDS011;70359;51.420;7.032;2023-08-08T14:44:56;1;;;0.8;;
80910;SDS011;70359;51.420;7.032;2023-08-08T14:47:21;0.9;;;0.9;;
80910;SDS011;70359;51.420;7.032;2023-08-08T14:49:46;0.9;;;0.9;;
80910;SDS011;70359;51.420;7.032;2023-08-08T14:52:11;3.4;;;1.3;;
80910;SDS011;70359;51.420;7.032;2023-08-08T14:54:40;3.4;;;1.3;;
80910;SDS011;70359;51.420;7.032;2023-08-08T14:57:05;1;;;0.9;;
80910;SDS011;70359;51.420;7.032;2023-08-08T14:59:30;1;;;0.9;;
80910;SDS011;70359;51.420;7.032;2023-08-08T15:01:51;0.8;;;0.8;;
80910;SDS011;70359;51.420;7.032;2023-08-08T15:04:16;0.8;;;0.8;;
80910;SDS011;70359;51.420;7.032;2023-08-08T15:06:41;1.2;;;0.8;;